Carpenter, WY

2:03 PM MDT on September 20, 2014 (GMT -0600)
Kimball Municipal-Arraj | Change Station
CLOSE
Current Station
Airport
Location: Kimball,
Elevation: 4925 ft
Nearby Weather Stations

Elev 4925 ft 41.19 °N, 103.68 °W | Updated 8 minutes ago

Clear
Clear
80 °F
Feels Like 80 °F
N
8
Wind Variable Wind from NNW

Today
High -- | Low -- °F
--% Chance of Precip.
Yesterday
High -- | Low -- °F
Precip. -- in
6:43 AM 6:57 PM
Waning Crescent, 10% visible
Pressure 30.21 in
Visibility 10.0 miles
Clouds Clear
Dew Point 46 °F
Humidity 30%
Rainfall 0.00 in
Snow Depth 0 in , 0 in , 0 in
UV 7 out of 12
Pollen 5.60 out of 12
Air Quality Not available.
Flu Activity Not available.
METAR KIBM 201955Z AUTO 34007KT 10SM CLR 27/08 A3021 RMK AO2 T02650076

More Conditions Fewer Conditions

Pressure 30.21 in
Visibility 10.0 miles
Clouds Clear
Dew Point 46 °F
Humidity 30%
Rainfall 0.00 in
Snow Depth 0 in , 0 in , 0 in
UV 7 out of 12
Pollen 5.60 out of 12
Air Quality Not available.
Flu Activity Not available.
METAR KIBM 201955Z AUTO 34007KT 10SM CLR 27/08 A3021 RMK AO2 T02650076

More Conditions Fewer Conditions

10-Day Weather Forecast

Almanac

Astronomy

Sep. 20, 2014 Rise Set
Actual Time 6:43 AM MDT 6:57 PM MDT
Civil Twilight 6:15 AM MDT 7:25 PM MDT
Nautical Twilight 5:43 AM MDT 7:57 PM MDT
Astronomical Twilight 5:10 AM MDT 8:30 PM MDT
Moon 3:23 AM MDT 5:03 PM MDT
Length of Visible Light 13h 09m
Length of Day
12h 14m
Tomorrow will be 2m 43s shorter.
Waning Crescent, 10% of the Moon is Illuminated
Today
Waning Crescent
Sep 24
New
Oct 1
First Quarter
Oct 8
Full
Oct 15
Last Quarter

Today's Extremes

State Highs State Lows

Community

WunderPhotos

Upload Photos

1,754,927 photos uploaded!

WunderBlogs® & News

Nearby

Snow Depth

Station Depth Elevation
Loomis Park 0 in 8240 ft
North French Creek 0 in 10130 ft
Townsend Creek 0 in 8700 ft
Willow Creek 2 in 8450 ft
Lewis Lake Divide 0 in 7850 ft

Earthquake Activity

City Distance Mag. Time & Date
No recent earthquake activity has been reported nearby.
Minimum magnitude displayed is 2.5.

Coastal Water Temperatures

Place Temperature
No Stations Reporting

Nearby Weather Stations